createdAt,value
2022-12-18T00:00:24.455Z,461.00
2022-12-18T00:00:54.567Z,463.00
2022-12-18T00:01:24.713Z,465.00
2022-12-18T00:01:54.878Z,465.00
2022-12-18T00:02:24.832Z,466.00
2022-12-18T00:02:55.058Z,466.00
2022-12-18T00:03:25.128Z,466.00
2022-12-18T00:03:55.206Z,464.00
2022-12-18T00:04:25.097Z,465.00
2022-12-18T00:04:55.106Z,466.00
2022-12-18T00:05:25.234Z,470.00
2022-12-18T00:05:55.218Z,471.00
2022-12-18T00:06:25.338Z,470.00
2022-12-18T00:06:55.451Z,470.00
2022-12-18T00:07:25.565Z,470.00
2022-12-18T00:07:55.724Z,470.00
2022-12-18T00:08:25.682Z,472.00
2022-12-18T00:08:55.677Z,472.00
2022-12-18T00:09:25.804Z,472.00
2022-12-18T00:09:55.819Z,472.00
2022-12-18T00:10:25.932Z,472.00
2022-12-18T00:10:56.056Z,470.00
2022-12-18T00:11:26.113Z,470.00
2022-12-18T00:11:56.105Z,472.00
2022-12-18T00:12:26.097Z,473.00
2022-12-18T00:12:56.211Z,474.00
2022-12-18T00:13:26.324Z,474.00
2022-12-18T00:13:56.365Z,474.00
2022-12-18T00:14:26.489Z,473.00
2022-12-18T00:14:56.589Z,475.00
2022-12-18T00:15:26.697Z,474.00
2022-12-18T00:15:56.890Z,474.00
2022-12-18T00:16:26.888Z,472.00
2022-12-18T00:16:56.930Z,472.00
2022-12-18T00:17:26.928Z,471.00
2022-12-18T00:17:57.043Z,471.00
2022-12-18T00:18:27.145Z,470.00
2022-12-18T00:18:57.255Z,469.00
2022-12-18T00:19:27.367Z,467.00
2022-12-18T00:19:57.483Z,469.00
2022-12-18T00:20:27.592Z,469.00
2022-12-18T00:20:57.713Z,468.00
2022-12-18T00:21:27.855Z,468.00
2022-12-18T00:21:57.987Z,469.00
2022-12-18T00:22:27.987Z,469.00
2022-12-18T00:22:57.965Z,471.00
2022-12-18T00:23:28.081Z,472.00
2022-12-18T00:23:58.192Z,473.00
2022-12-18T00:24:28.304Z,471.00
2022-12-18T00:24:58.296Z,471.00
2022-12-18T00:25:28.420Z,470.00
2022-12-18T00:25:58.427Z,471.00
2022-12-18T00:26:28.405Z,470.00
2022-12-18T00:26:58.522Z,469.00
2022-12-18T00:27:28.636Z,468.00
2022-12-18T00:27:58.747Z,470.00
2022-12-18T00:28:28.870Z,469.00
2022-12-18T00:28:58.978Z,470.00
2022-12-18T00:29:29.123Z,471.00
2022-12-18T00:29:59.222Z,472.00
2022-12-18T00:30:29.205Z,473.00
2022-12-18T00:30:59.328Z,472.00
2022-12-18T00:31:29.501Z,473.00
2022-12-18T00:31:59.508Z,474.00
2022-12-18T00:32:29.468Z,476.00
2022-12-18T00:32:59.581Z,476.00
2022-12-18T00:33:29.697Z,477.00
2022-12-18T00:33:59.814Z,478.00
2022-12-18T00:34:29.815Z,476.00
2022-12-18T00:34:59.926Z,476.00
2022-12-18T00:35:30.040Z,476.00
2022-12-18T00:36:00.191Z,475.00
2022-12-18T00:36:30.178Z,475.00
2022-12-18T00:37:00.186Z,476.00
2022-12-18T00:37:30.226Z,475.00
2022-12-18T00:38:00.197Z,474.00
2022-12-18T00:38:30.309Z,472.00
2022-12-18T00:39:00.425Z,471.00
2022-12-18T00:39:30.547Z,471.00
2022-12-18T00:40:00.577Z,472.00
2022-12-18T00:40:30.578Z,472.00
2022-12-18T00:41:00.679Z,469.00
2022-12-18T00:41:30.767Z,469.00
2022-12-18T00:42:00.774Z,467.00
2022-12-18T00:42:30.762Z,465.00
2022-12-18T00:43:00.745Z,464.00
2022-12-18T00:43:30.863Z,465.00
2022-12-18T00:44:00.976Z,466.00
2022-12-18T00:44:30.992Z,463.00
2022-12-18T00:45:01.094Z,461.00
2022-12-18T00:45:31.316Z,463.00
2022-12-18T00:46:01.340Z,462.00
2022-12-18T00:46:31.314Z,462.00
2022-12-18T00:47:01.471Z,464.00
2022-12-18T00:47:31.461Z,464.00
2022-12-18T00:48:01.599Z,464.00
2022-12-18T00:48:31.729Z,464.00
2022-12-18T00:49:01.793Z,464.00
2022-12-18T00:49:31.884Z,466.00
2022-12-18T00:50:01.983Z,466.00
2022-12-18T00:50:32.035Z,467.00
2022-12-18T00:51:02.036Z,466.00
2022-12-18T00:51:32.126Z,465.00
2022-12-18T00:52:02.219Z,463.00
2022-12-18T00:52:32.296Z,463.00
2022-12-18T00:53:02.367Z,464.00
2022-12-18T00:53:32.445Z,463.00
2022-12-18T00:54:02.524Z,462.00
2022-12-18T00:54:32.604Z,462.00
2022-12-18T00:55:06.194Z,463.00
2022-12-18T00:55:32.783Z,464.00
2022-12-18T00:56:02.855Z,464.00
2022-12-18T00:56:32.933Z,462.00
2022-12-18T00:57:03.030Z,462.00
2022-12-18T00:57:33.100Z,463.00
2022-12-18T00:58:03.172Z,464.00
2022-12-18T00:58:33.259Z,464.00
2022-12-18T00:59:03.374Z,464.00
2022-12-18T00:59:33.519Z,463.00
2022-12-18T01:00:03.598Z,462.00
2022-12-18T01:00:33.757Z,462.00
2022-12-18T01:01:03.913Z,461.00
2022-12-18T01:01:34.002Z,460.00
2022-12-18T01:02:04.084Z,459.00
2022-12-18T01:02:34.117Z,460.00
2022-12-18T01:03:04.131Z,459.00
2022-12-18T01:03:34.050Z,459.00
2022-12-18T01:04:04.205Z,459.00
2022-12-18T01:04:34.177Z,461.00
2022-12-18T01:05:04.298Z,460.00
2022-12-18T01:05:34.312Z,462.00
2022-12-18T01:06:04.408Z,458.00
2022-12-18T01:06:34.400Z,460.00
2022-12-18T01:07:04.521Z,462.00
2022-12-18T01:07:34.631Z,461.00
2022-12-18T01:08:04.746Z,463.00
2022-12-18T01:08:34.824Z,464.00
2022-12-18T01:09:04.951Z,466.00
2022-12-18T01:09:34.938Z,461.00
2022-12-18T01:10:05.055Z,463.00
2022-12-18T01:10:35.168Z,463.00
2022-12-18T01:11:05.273Z,465.00
2022-12-18T01:11:35.387Z,467.00
2022-12-18T01:12:05.402Z,469.00
2022-12-18T01:12:35.505Z,469.00
2022-12-18T01:13:05.639Z,465.00
2022-12-18T01:13:35.900Z,462.00
2022-12-18T01:14:05.622Z,465.00
2022-12-18T01:14:35.741Z,466.00
2022-12-18T01:15:05.869Z,468.00
2022-12-18T01:15:35.865Z,469.00
2022-12-18T01:16:05.899Z,468.00
2022-12-18T01:16:35.994Z,468.00
2022-12-18T01:17:05.913Z,470.00
2022-12-18T01:17:35.909Z,468.00
2022-12-18T01:18:06.020Z,468.00
2022-12-18T01:18:36.129Z,468.00
2022-12-18T01:19:06.252Z,469.00
2022-12-18T01:19:36.246Z,470.00
2022-12-18T01:20:06.361Z,471.00
2022-12-18T01:20:36.473Z,470.00
2022-12-18T01:21:06.584Z,470.00
2022-12-18T01:21:36.698Z,468.00
2022-12-18T01:22:06.822Z,468.00
2022-12-18T01:22:36.814Z,468.00
2022-12-18T01:23:06.804Z,470.00
2022-12-18T01:23:37.341Z,469.00
2022-12-18T01:24:07.037Z,470.00
2022-12-18T01:24:37.147Z,470.00
2022-12-18T01:25:07.261Z,471.00
2022-12-18T01:25:37.406Z,472.00
2022-12-18T01:26:07.401Z,472.00
2022-12-18T01:26:37.515Z,471.00
2022-12-18T01:27:07.639Z,470.00
2022-12-18T01:27:37.627Z,470.00
2022-12-18T01:28:07.776Z,466.00
2022-12-18T01:28:37.738Z,465.00
2022-12-18T01:29:07.848Z,468.00
2022-12-18T01:29:37.952Z,468.00
2022-12-18T01:30:08.066Z,468.00
2022-12-18T01:30:38.065Z,468.00
2022-12-18T01:31:08.180Z,469.00
2022-12-18T01:31:38.342Z,469.00
2022-12-18T01:32:08.506Z,470.00
2022-12-18T01:32:38.520Z,469.00
2022-12-18T01:33:08.626Z,468.00
2022-12-18T01:33:39.177Z,467.00
2022-12-18T01:34:08.745Z,465.00
2022-12-18T01:34:38.731Z,463.00
2022-12-18T01:35:08.850Z,464.00
2022-12-18T01:35:38.974Z,463.00
2022-12-18T01:36:09.094Z,462.00
2022-12-18T01:36:39.082Z,462.00
2022-12-18T01:37:09.217Z,460.00
2022-12-18T01:37:39.204Z,462.00
2022-12-18T01:38:09.322Z,463.00
2022-12-18T01:38:39.418Z,463.00
2022-12-18T01:39:09.540Z,464.00
2022-12-18T01:39:39.687Z,464.00
2022-12-18T01:40:09.654Z,464.00
2022-12-18T01:40:39.780Z,465.00
2022-12-18T01:41:09.879Z,465.00
2022-12-18T01:41:39.997Z,464.00
2022-12-18T01:42:10.122Z,465.00
2022-12-18T01:42:40.103Z,465.00
2022-12-18T01:43:10.235Z,464.00
2022-12-18T01:43:40.776Z,462.00
2022-12-18T01:44:10.398Z,462.00
2022-12-18T01:44:40.508Z,461.00
2022-12-18T01:45:10.625Z,459.00
2022-12-18T01:45:40.740Z,459.00
2022-12-18T01:46:10.803Z,461.00
2022-12-18T01:46:40.814Z,461.00
2022-12-18T01:47:10.950Z,463.00
2022-12-18T01:47:40.957Z,460.00
2022-12-18T01:48:10.952Z,459.00
2022-12-18T01:48:41.037Z,460.00
2022-12-18T01:49:11.127Z,462.00
2022-12-18T01:49:41.182Z,462.00
2022-12-18T01:50:11.260Z,460.00
2022-12-18T01:50:41.338Z,459.00
2022-12-18T01:51:11.414Z,462.00
2022-12-18T01:51:41.497Z,462.00
2022-12-18T01:52:11.573Z,463.00
2022-12-18T01:52:41.680Z,466.00
2022-12-18T01:53:11.771Z,467.00
2022-12-18T01:53:41.941Z,466.00
2022-12-18T01:54:11.852Z,466.00
2022-12-18T01:54:41.926Z,467.00
2022-12-18T01:55:12.005Z,469.00
2022-12-18T01:55:42.105Z,469.00
2022-12-18T01:56:12.176Z,470.00
2022-12-18T01:56:42.257Z,471.00
2022-12-18T01:57:12.318Z,471.00
2022-12-18T01:57:42.425Z,471.00
2022-12-18T01:58:12.496Z,471.00
2022-12-18T01:58:42.612Z,468.00
2022-12-18T01:59:12.726Z,466.00
2022-12-18T01:59:42.840Z,465.00
2022-12-18T02:00:12.959Z,464.00
2022-12-18T02:00:43.125Z,463.00
2022-12-18T02:01:13.153Z,462.00
2022-12-18T02:01:43.343Z,462.00
2022-12-18T02:02:13.360Z,462.00
2022-12-18T02:02:43.473Z,462.00
2022-12-18T02:03:13.425Z,463.00
2022-12-18T02:03:43.412Z,463.00
2022-12-18T02:04:13.523Z,463.00
2022-12-18T02:04:49.190Z,464.00
2022-12-18T02:05:13.652Z,464.00
2022-12-18T02:05:43.766Z,464.00
2022-12-18T02:06:13.897Z,462.00
2022-12-18T02:06:43.999Z,462.00
2022-12-18T02:07:14.114Z,463.00
2022-12-18T02:07:44.265Z,462.00
2022-12-18T02:08:14.241Z,462.00
2022-12-18T02:08:44.358Z,462.00
2022-12-18T02:09:14.475Z,464.00
2022-12-18T02:09:44.581Z,462.00
2022-12-18T02:10:14.704Z,463.00
2022-12-18T02:10:44.691Z,465.00
2022-12-18T02:11:14.786Z,467.00
2022-12-18T02:11:44.899Z,467.00
2022-12-18T02:12:15.015Z,467.00
2022-12-18T02:12:45.254Z,466.00
2022-12-18T02:13:15.224Z,467.00
2022-12-18T02:13:45.204Z,467.00
2022-12-18T02:14:15.316Z,467.00
2022-12-18T02:14:45.417Z,470.00
2022-12-18T02:15:15.527Z,471.00
2022-12-18T02:15:45.521Z,470.00
2022-12-18T02:16:15.686Z,471.00
2022-12-18T02:16:45.823Z,470.00
2022-12-18T02:17:15.676Z,472.00
2022-12-18T02:17:45.833Z,472.00
2022-12-18T02:18:15.814Z,471.00
2022-12-18T02:18:45.940Z,472.00
2022-12-18T02:19:15.939Z,474.00
2022-12-18T02:19:46.052Z,474.00
2022-12-18T02:20:16.167Z,475.00
2022-12-18T02:20:46.278Z,475.00
2022-12-18T02:21:16.390Z,475.00
2022-12-18T02:21:46.507Z,472.00
2022-12-18T02:22:16.640Z,473.00
2022-12-18T02:22:46.629Z,471.00
2022-12-18T02:23:16.741Z,472.00
2022-12-18T02:23:46.740Z,471.00
2022-12-18T02:24:16.851Z,473.00
2022-12-18T02:24:47.003Z,472.00
2022-12-18T02:25:17.066Z,472.00
2022-12-18T02:25:47.181Z,473.00
2022-12-18T02:26:17.296Z,473.00
2022-12-18T02:26:47.403Z,475.00
2022-12-18T02:27:17.534Z,475.00
2022-12-18T02:27:47.640Z,476.00
2022-12-18T02:28:17.582Z,476.00
2022-12-18T02:28:47.664Z,475.00
2022-12-18T02:29:17.775Z,476.00
2022-12-18T02:29:50.573Z,475.00
2022-12-18T02:30:17.906Z,474.00
2022-12-18T02:30:48.118Z,472.00
2022-12-18T02:31:18.082Z,474.00
2022-12-18T02:31:48.084Z,475.00
2022-12-18T02:32:18.204Z,474.00
2022-12-18T02:32:48.194Z,473.00
2022-12-18T02:33:18.303Z,474.00
2022-12-18T02:33:48.466Z,474.00
2022-12-18T02:34:18.448Z,473.00
2022-12-18T02:34:48.467Z,471.00
2022-12-18T02:35:18.582Z,471.00
2022-12-18T02:35:48.696Z,470.00
2022-12-18T02:36:18.805Z,470.00
2022-12-18T02:36:48.929Z,469.00
2022-12-18T02:37:19.037Z,469.00
2022-12-18T02:37:49.149Z,469.00
2022-12-18T02:38:19.287Z,469.00
2022-12-18T02:38:49.370Z,467.00
2022-12-18T02:39:19.482Z,466.00
2022-12-18T02:39:49.601Z,461.00
2022-12-18T02:40:19.718Z,462.00
2022-12-18T02:40:49.829Z,463.00
2022-12-18T02:41:19.938Z,464.00
2022-12-18T02:41:50.053Z,463.00
2022-12-18T02:42:20.163Z,460.00
2022-12-18T02:42:55.842Z,462.00
2022-12-18T02:43:20.402Z,463.00
2022-12-18T02:43:50.355Z,462.00
2022-12-18T02:44:20.466Z,463.00
2022-12-18T02:44:50.578Z,464.00
2022-12-18T02:45:20.690Z,464.00
2022-12-18T02:45:50.903Z,465.00
2022-12-18T02:46:20.932Z,467.00
2022-12-18T02:46:50.983Z,468.00
2022-12-18T02:47:20.975Z,469.00
2022-12-18T02:47:51.094Z,470.00
2022-12-18T02:48:21.079Z,468.00
2022-12-18T02:48:51.151Z,468.00
2022-12-18T02:49:21.223Z,468.00
2022-12-18T02:49:51.298Z,466.00
2022-12-18T02:50:21.371Z,467.00
2022-12-18T02:50:51.446Z,465.00
2022-12-18T02:51:21.515Z,464.00
2022-12-18T02:51:51.602Z,466.00
2022-12-18T02:52:21.673Z,466.00
2022-12-18T02:52:51.751Z,463.00
2022-12-18T02:53:21.831Z,461.00
2022-12-18T02:53:51.901Z,461.00
2022-12-18T02:54:21.982Z,460.00
2022-12-18T02:54:52.054Z,459.00
2022-12-18T02:55:22.129Z,459.00
2022-12-18T02:55:52.214Z,458.00
2022-12-18T02:56:22.284Z,457.00
2022-12-18T02:56:52.366Z,456.00
2022-12-18T02:57:22.439Z,458.00
2022-12-18T02:57:52.511Z,458.00
2022-12-18T02:58:22.585Z,463.00
2022-12-18T02:58:52.824Z,462.00
2022-12-18T02:59:22.772Z,458.00
2022-12-18T02:59:52.883Z,458.00
2022-12-18T03:00:22.994Z,457.00
2022-12-18T03:00:53.176Z,457.00
2022-12-18T03:01:23.286Z,453.00
2022-12-18T03:01:53.323Z,455.00
2022-12-18T03:02:23.424Z,456.00
2022-12-18T03:02:53.417Z,459.00
2022-12-18T03:03:23.707Z,459.00
2022-12-18T03:03:53.295Z,459.00
2022-12-18T03:04:23.406Z,460.00
2022-12-18T03:04:53.521Z,461.00
2022-12-18T03:05:23.647Z,461.00
2022-12-18T03:05:53.748Z,463.00
2022-12-18T03:06:23.852Z,461.00
2022-12-18T03:06:53.966Z,462.00
2022-12-18T03:07:24.079Z,463.00
2022-12-18T03:07:54.192Z,465.00
2022-12-18T03:08:24.305Z,463.00
2022-12-18T03:08:54.421Z,464.00
2022-12-18T03:09:24.529Z,465.00
2022-12-18T03:09:54.644Z,467.00
2022-12-18T03:10:24.757Z,468.00
2022-12-18T03:10:54.875Z,464.00
2022-12-18T03:11:24.865Z,467.00
2022-12-18T03:11:54.983Z,467.00
2022-12-18T03:12:25.097Z,469.00
2022-12-18T03:12:55.210Z,469.00
2022-12-18T03:13:25.333Z,469.00
2022-12-18T03:13:55.323Z,469.00
2022-12-18T03:14:25.553Z,468.00
2022-12-18T03:14:55.503Z,467.00
2022-12-18T03:15:25.611Z,468.00
2022-12-18T03:15:55.736Z,470.00
2022-12-18T03:16:25.877Z,468.00
2022-12-18T03:16:55.933Z,469.00
2022-12-18T03:17:25.907Z,469.00
2022-12-18T03:17:56.014Z,468.00
2022-12-18T03:18:26.124Z,467.00
2022-12-18T03:18:56.237Z,467.00
2022-12-18T03:19:26.348Z,468.00
2022-12-18T03:19:56.459Z,468.00
2022-12-18T03:20:26.569Z,466.00
2022-12-18T03:20:56.679Z,467.00
2022-12-18T03:21:26.795Z,468.00
2022-12-18T03:21:56.906Z,469.00
2022-12-18T03:22:26.907Z,469.00
2022-12-18T03:22:57.019Z,468.00
2022-12-18T03:23:27.135Z,469.00
2022-12-18T03:23:57.253Z,469.00
2022-12-18T03:24:27.364Z,470.00
2022-12-18T03:24:57.504Z,468.00
2022-12-18T03:25:27.489Z,472.00
2022-12-18T03:25:57.609Z,473.00
2022-12-18T03:26:27.737Z,473.00
2022-12-18T03:26:57.841Z,474.00
2022-12-18T03:27:27.961Z,474.00
2022-12-18T03:27:58.075Z,474.00
2022-12-18T03:28:28.186Z,473.00
2022-12-18T03:28:58.302Z,471.00
2022-12-18T03:29:28.525Z,470.00
2022-12-18T03:29:58.480Z,469.00
2022-12-18T03:30:28.593Z,468.00
2022-12-18T03:30:58.781Z,469.00
2022-12-18T03:31:28.841Z,467.00
2022-12-18T03:31:58.819Z,467.00
2022-12-18T03:32:28.936Z,463.00
2022-12-18T03:33:00.514Z,463.00
2022-12-18T03:33:29.078Z,463.00
2022-12-18T03:33:59.200Z,462.00
2022-12-18T03:34:29.307Z,460.00
2022-12-18T03:34:59.424Z,459.00
2022-12-18T03:35:29.542Z,459.00
2022-12-18T03:35:59.652Z,459.00
2022-12-18T03:36:29.766Z,458.00
2022-12-18T03:36:59.875Z,458.00
2022-12-18T03:37:29.988Z,458.00
2022-12-18T03:38:00.105Z,458.00
2022-12-18T03:38:30.219Z,456.00
2022-12-18T03:39:00.335Z,456.00
2022-12-18T03:39:30.443Z,453.00
2022-12-18T03:40:00.561Z,454.00
2022-12-18T03:40:30.671Z,454.00
2022-12-18T03:41:00.782Z,454.00
2022-12-18T03:41:30.893Z,455.00
2022-12-18T03:42:01.005Z,454.00
2022-12-18T03:42:31.110Z,454.00
2022-12-18T03:43:01.248Z,455.00
2022-12-18T03:43:31.345Z,458.00
2022-12-18T03:44:01.465Z,457.00
2022-12-18T03:44:31.568Z,457.00
2022-12-18T03:45:01.518Z,457.00
2022-12-18T03:45:31.634Z,454.00
2022-12-18T03:46:01.828Z,454.00
2022-12-18T03:46:31.854Z,454.00
2022-12-18T03:47:01.885Z,455.00
2022-12-18T03:47:32.012Z,455.00
2022-12-18T03:48:02.000Z,456.00
2022-12-18T03:48:32.099Z,458.00
2022-12-18T03:49:02.173Z,458.00
2022-12-18T03:49:32.254Z,456.00
2022-12-18T03:50:02.326Z,457.00
2022-12-18T03:50:32.403Z,457.00
2022-12-18T03:51:02.474Z,456.00
2022-12-18T03:51:32.547Z,457.00
2022-12-18T03:52:02.624Z,459.00
2022-12-18T03:52:32.742Z,456.00
2022-12-18T03:53:02.697Z,454.00
2022-12-18T03:53:32.765Z,455.00
2022-12-18T03:54:02.842Z,456.00
2022-12-18T03:54:32.925Z,456.00
2022-12-18T03:55:03.005Z,457.00
2022-12-18T03:55:33.073Z,455.00
2022-12-18T03:56:03.144Z,456.00
2022-12-18T03:56:33.221Z,457.00
2022-12-18T03:57:03.301Z,456.00
2022-12-18T03:57:33.389Z,456.00
2022-12-18T03:58:03.467Z,454.00
2022-12-18T03:58:33.547Z,454.00
2022-12-18T03:59:03.663Z,453.00
2022-12-18T03:59:33.905Z,455.00
2022-12-18T04:00:03.848Z,453.00
2022-12-18T04:00:33.966Z,452.00
2022-12-18T04:01:04.079Z,451.00
2022-12-18T04:01:34.329Z,451.00
2022-12-18T04:02:04.343Z,449.00
2022-12-18T04:02:34.385Z,448.00
2022-12-18T04:03:04.341Z,451.00
2022-12-18T04:03:36.377Z,453.00
2022-12-18T04:04:04.482Z,454.00
2022-12-18T04:04:34.459Z,452.00
2022-12-18T04:05:04.570Z,453.00
2022-12-18T04:05:34.684Z,454.00
2022-12-18T04:06:04.798Z,451.00
2022-12-18T04:06:34.846Z,451.00
2022-12-18T04:07:04.944Z,452.00
2022-12-18T04:07:35.049Z,454.00
2022-12-18T04:08:05.164Z,454.00
2022-12-18T04:08:35.273Z,456.00
2022-12-18T04:09:05.403Z,458.00
2022-12-18T04:09:35.391Z,458.00
2022-12-18T04:10:05.500Z,457.00
2022-12-18T04:10:35.613Z,456.00
2022-12-18T04:11:05.734Z,456.00
2022-12-18T04:11:35.843Z,451.00
2022-12-18T04:12:05.974Z,454.00
2022-12-18T04:12:35.952Z,458.00
2022-12-18T04:13:06.069Z,457.00
2022-12-18T04:13:36.489Z,458.00
2022-12-18T04:14:07.467Z,458.00
2022-12-18T04:14:36.279Z,458.00
2022-12-18T04:15:12.378Z,458.00
2022-12-18T04:15:36.581Z,458.00
2022-12-18T04:16:06.564Z,457.00
2022-12-18T04:16:36.432Z,458.00
2022-12-18T04:17:06.549Z,459.00
2022-12-18T04:17:36.660Z,458.00
2022-12-18T04:18:06.776Z,459.00
2022-12-18T04:18:36.891Z,458.00
2022-12-18T04:19:07.003Z,457.00
2022-12-18T04:19:37.076Z,459.00
2022-12-18T04:20:07.197Z,460.00
2022-12-18T04:20:37.314Z,461.00
2022-12-18T04:21:07.423Z,460.00
2022-12-18T04:21:37.538Z,461.00
2022-12-18T04:22:07.569Z,458.00
2022-12-18T04:22:37.680Z,459.00
2022-12-18T04:23:07.794Z,459.00
2022-12-18T04:23:38.173Z,459.00
2022-12-18T04:24:07.922Z,461.00
2022-12-18T04:24:38.037Z,464.00
2022-12-18T04:25:08.135Z,462.00
2022-12-18T04:25:38.247Z,460.00
2022-12-18T04:26:08.360Z,458.00
2022-12-18T04:26:38.467Z,459.00
2022-12-18T04:27:08.581Z,458.00
2022-12-18T04:27:38.695Z,457.00
2022-12-18T04:28:08.813Z,458.00
2022-12-18T04:28:38.919Z,459.00
2022-12-18T04:29:09.066Z,460.00
2022-12-18T04:29:39.046Z,460.00
2022-12-18T04:30:09.161Z,459.00
2022-12-18T04:30:39.395Z,462.00
2022-12-18T04:31:09.391Z,463.00
2022-12-18T04:31:39.372Z,464.00
2022-12-18T04:32:09.484Z,464.00
2022-12-18T04:32:39.597Z,463.00
2022-12-18T04:33:09.590Z,462.00
2022-12-18T04:33:40.076Z,461.00
2022-12-18T04:34:09.744Z,461.00
2022-12-18T04:34:39.860Z,460.00
2022-12-18T04:35:09.973Z,458.00
2022-12-18T04:35:39.967Z,459.00
2022-12-18T04:36:10.082Z,459.00
2022-12-18T04:36:40.195Z,459.00
2022-12-18T04:37:10.307Z,457.00
2022-12-18T04:37:40.438Z,456.00
2022-12-18T04:38:10.537Z,457.00
2022-12-18T04:38:40.641Z,458.00
2022-12-18T04:39:10.763Z,457.00
2022-12-18T04:39:40.872Z,455.00
2022-12-18T04:40:10.987Z,453.00
2022-12-18T04:40:41.431Z,451.00
2022-12-18T04:41:11.238Z,448.00
2022-12-18T04:41:41.225Z,449.00
2022-12-18T04:42:11.337Z,452.00
2022-12-18T04:42:41.504Z,452.00
2022-12-18T04:43:11.581Z,450.00
2022-12-18T04:43:41.889Z,449.00
2022-12-18T04:44:11.643Z,450.00
2022-12-18T04:44:41.757Z,448.00
2022-12-18T04:45:11.873Z,447.00
2022-12-18T04:45:42.107Z,446.00
2022-12-18T04:46:12.152Z,447.00
2022-12-18T04:46:42.182Z,450.00
2022-12-18T04:47:12.138Z,451.00
2022-12-18T04:47:42.253Z,449.00
2022-12-18T04:48:12.367Z,447.00
2022-12-18T04:48:42.469Z,449.00
2022-12-18T04:49:12.541Z,447.00
2022-12-18T04:49:42.616Z,450.00
2022-12-18T04:50:12.690Z,451.00
2022-12-18T04:50:42.760Z,451.00
2022-12-18T04:51:12.831Z,451.00
2022-12-18T04:51:42.908Z,450.00
2022-12-18T04:52:12.981Z,451.00
2022-12-18T04:52:43.057Z,450.00
2022-12-18T04:53:13.131Z,453.00
2022-12-18T04:53:43.487Z,453.00
2022-12-18T04:54:13.245Z,453.00
2022-12-18T04:54:43.322Z,454.00
2022-12-18T04:55:13.395Z,453.00
2022-12-18T04:55:43.466Z,454.00
2022-12-18T04:56:13.544Z,453.00
2022-12-18T04:56:43.617Z,454.00
2022-12-18T04:57:13.688Z,454.00
2022-12-18T04:57:43.767Z,454.00
2022-12-18T04:58:13.839Z,454.00
2022-12-18T04:58:43.944Z,454.00
2022-12-18T04:59:14.054Z,454.00
2022-12-18T04:59:44.165Z,455.00
2022-12-18T05:00:14.277Z,456.00
2022-12-18T05:00:44.394Z,458.00
2022-12-18T05:01:14.747Z,458.00
2022-12-18T05:01:44.655Z,457.00
2022-12-18T05:02:14.728Z,456.00
2022-12-18T05:02:44.849Z,456.00
2022-12-18T05:03:14.824Z,455.00
2022-12-18T05:03:45.532Z,454.00
2022-12-18T05:04:14.847Z,455.00
2022-12-18T05:04:44.913Z,457.00
2022-12-18T05:05:15.023Z,457.00
2022-12-18T05:05:45.141Z,456.00
2022-12-18T05:06:15.249Z,456.00
2022-12-18T05:06:45.364Z,456.00
2022-12-18T05:07:15.474Z,454.00
2022-12-18T05:07:45.586Z,454.00
2022-12-18T05:08:15.628Z,455.00
2022-12-18T05:08:45.737Z,456.00
2022-12-18T05:09:15.806Z,453.00
2022-12-18T05:09:45.959Z,452.00
2022-12-18T05:10:15.946Z,452.00
2022-12-18T05:10:46.063Z,451.00
2022-12-18T05:11:16.173Z,451.00
2022-12-18T05:11:46.292Z,450.00
2022-12-18T05:12:16.344Z,452.00
2022-12-18T05:12:46.463Z,449.00
2022-12-18T05:13:16.579Z,449.00
2022-12-18T05:13:46.686Z,449.00
2022-12-18T05:14:16.804Z,452.00
2022-12-18T05:14:46.919Z,454.00
2022-12-18T05:15:16.904Z,456.00
2022-12-18T05:15:47.080Z,456.00
2022-12-18T05:16:17.375Z,455.00
2022-12-18T05:16:47.084Z,456.00
2022-12-18T05:17:17.215Z,456.00
2022-12-18T05:17:47.199Z,457.00
2022-12-18T05:18:17.313Z,458.00
2022-12-18T05:18:47.430Z,460.00
2022-12-18T05:19:17.539Z,460.00
2022-12-18T05:19:47.647Z,458.00
2022-12-18T05:20:17.758Z,459.00
2022-12-18T05:20:47.892Z,458.00
2022-12-18T05:21:17.875Z,459.00
2022-12-18T05:21:47.988Z,459.00
2022-12-18T05:22:18.137Z,456.00
2022-12-18T05:22:48.117Z,456.00
2022-12-18T05:23:18.230Z,454.00
2022-12-18T05:23:48.349Z,453.00
2022-12-18T05:24:18.460Z,453.00
2022-12-18T05:24:48.572Z,455.00
2022-12-18T05:25:18.682Z,457.00
2022-12-18T05:25:48.802Z,457.00
2022-12-18T05:26:18.908Z,455.00
2022-12-18T05:26:49.028Z,454.00
2022-12-18T05:27:19.041Z,455.00
2022-12-18T05:27:49.027Z,455.00
2022-12-18T05:28:19.140Z,456.00
2022-12-18T05:28:49.253Z,457.00
2022-12-18T05:29:19.367Z,458.00
2022-12-18T05:29:49.475Z,460.00
2022-12-18T05:30:19.592Z,459.00
2022-12-18T05:30:49.780Z,457.00
2022-12-18T05:31:19.942Z,461.00
2022-12-18T05:31:49.899Z,458.00
2022-12-18T05:32:19.926Z,456.00
2022-12-18T05:32:49.911Z,456.00
2022-12-18T05:33:20.022Z,455.00
2022-12-18T05:33:50.137Z,453.00
2022-12-18T05:34:20.248Z,454.00
2022-12-18T05:34:50.377Z,454.00
2022-12-18T05:35:20.359Z,455.00
2022-12-18T05:35:50.473Z,455.00
2022-12-18T05:36:20.581Z,455.00
2022-12-18T05:36:50.699Z,456.00
2022-12-18T05:37:20.816Z,459.00
2022-12-18T05:37:50.927Z,460.00
2022-12-18T05:38:21.043Z,458.00
2022-12-18T05:38:51.153Z,456.00
2022-12-18T05:39:21.266Z,456.00
2022-12-18T05:39:51.382Z,457.00
2022-12-18T05:40:21.490Z,453.00
2022-12-18T05:40:51.606Z,452.00
2022-12-18T05:41:21.725Z,452.00
2022-12-18T05:41:51.831Z,452.00
2022-12-18T05:42:21.950Z,453.00
2022-12-18T05:42:52.063Z,454.00
2022-12-18T05:43:22.189Z,453.00
2022-12-18T05:43:52.294Z,452.00
2022-12-18T05:44:22.409Z,451.00
2022-12-18T05:44:52.519Z,450.00
2022-12-18T05:45:22.632Z,451.00
2022-12-18T05:45:52.747Z,451.00
2022-12-18T05:46:23.045Z,447.00
2022-12-18T05:46:52.981Z,446.00
2022-12-18T05:47:23.013Z,446.00
2022-12-18T05:47:53.004Z,442.00
2022-12-18T05:48:23.021Z,441.00
2022-12-18T05:48:53.091Z,441.00
2022-12-18T05:49:23.156Z,440.00
2022-12-18T05:49:53.235Z,440.00
2022-12-18T05:50:23.301Z,439.00
2022-12-18T05:50:53.384Z,440.00
2022-12-18T05:51:23.456Z,442.00
2022-12-18T05:51:53.531Z,439.00
2022-12-18T05:52:23.612Z,441.00
2022-12-18T05:52:53.689Z,441.00
2022-12-18T05:53:23.766Z,441.00
2022-12-18T05:53:53.840Z,442.00
2022-12-18T05:54:23.913Z,442.00
2022-12-18T05:54:53.990Z,443.00
2022-12-18T05:55:24.065Z,440.00
2022-12-18T05:55:54.063Z,444.00
2022-12-18T05:56:24.135Z,444.00
2022-12-18T05:56:54.209Z,446.00
2022-12-18T05:57:24.289Z,449.00
2022-12-18T05:57:54.317Z,451.00
2022-12-18T05:58:24.394Z,451.00
2022-12-18T05:58:54.509Z,450.00
2022-12-18T05:59:24.580Z,448.00
2022-12-18T05:59:54.697Z,447.00
2022-12-18T06:00:24.809Z,448.00
2022-12-18T06:00:54.924Z,445.00
2022-12-18T06:01:25.253Z,447.00
2022-12-18T06:01:55.285Z,448.00
2022-12-18T06:02:25.267Z,450.00
2022-12-18T06:02:55.517Z,450.00
2022-12-18T06:03:29.359Z,449.00
2022-12-18T06:03:55.423Z,447.00
2022-12-18T06:04:25.421Z,448.00
2022-12-18T06:04:55.538Z,448.00
2022-12-18T06:05:25.646Z,447.00
2022-12-18T06:05:55.764Z,448.00
2022-12-18T06:06:25.875Z,447.00
2022-12-18T06:06:55.944Z,446.00
2022-12-18T06:07:25.930Z,443.00
2022-12-18T06:07:56.042Z,445.00
2022-12-18T06:08:26.151Z,444.00
2022-12-18T06:08:56.267Z,444.00
2022-12-18T06:09:26.377Z,443.00
2022-12-18T06:09:56.493Z,442.00
2022-12-18T06:10:26.607Z,440.00
2022-12-18T06:10:56.721Z,441.00
2022-12-18T06:11:26.835Z,441.00
2022-12-18T06:11:57.021Z,441.00
2022-12-18T06:12:27.002Z,441.00
2022-12-18T06:12:57.123Z,442.00
2022-12-18T06:13:27.226Z,441.00
2022-12-18T06:13:58.924Z,442.00
2022-12-18T06:14:27.423Z,443.00
2022-12-18T06:14:57.532Z,445.00
2022-12-18T06:15:27.759Z,445.00